sensor_id;sensor_type;location;lat;lon;timestamp;pressure;altitude;pressure_sealevel;temperature;humidity
19672;BME280;9983;51.114;13.788;2023-05-07T00:01:47;99757.94;;;12.42;100.00
19672;BME280;9983;51.114;13.788;2023-05-07T00:06:47;99747.53;;;12.39;100.00
19672;BME280;9983;51.114;13.788;2023-05-07T00:11:47;99760.31;;;12.60;100.00
19672;BME280;9983;51.114;13.788;2023-05-07T00:16:47;99748.66;;;12.67;100.00
19672;BME280;9983;51.114;13.788;2023-05-07T00:21:48;99760.81;;;12.63;100.00
19672;BME280;9983;51.114;13.788;2023-05-07T00:26:48;99747.91;;;12.73;100.00
19672;BME280;9983;51.114;13.788;2023-05-07T00:31:49;99750.31;;;12.68;100.00
19672;BME280;9983;51.114;13.788;2023-05-07T00:36:50;99755.78;;;12.60;100.00
19672;BME280;9983;51.114;13.788;2023-05-07T00:41:50;99756.97;;;12.35;100.00
19672;BME280;9983;51.114;13.788;2023-05-07T00:46:51;99753.81;;;12.54;100.00
19672;BME280;9983;51.114;13.788;2023-05-07T00:51:51;99756.84;;;12.51;100.00
19672;BME280;9983;51.114;13.788;2023-05-07T00:56:52;99755.19;;;12.50;100.00
19672;BME280;9983;51.114;13.788;2023-05-07T01:01:52;99757.53;;;12.53;100.00
19672;BME280;9983;51.114;13.788;2023-05-07T01:06:55;99749.78;;;12.50;100.00
19672;BME280;9983;51.114;13.788;2023-05-07T01:11:56;99755.78;;;12.37;100.00
19672;BME280;9983;51.114;13.788;2023-05-07T01:16:57;99756.16;;;12.34;100.00
19672;BME280;9983;51.114;13.788;2023-05-07T01:22:04;99758.44;;;12.14;100.00
19672;BME280;9983;51.114;13.788;2023-05-07T01:27:07;99757.31;;;12.32;100.00
19672;BME280;9983;51.114;13.788;2023-05-07T01:32:07;99767.00;;;12.41;100.00
19672;BME280;9983;51.114;13.788;2023-05-07T01:37:07;99762.72;;;12.32;100.00
19672;BME280;9983;51.114;13.788;2023-05-07T01:42:08;99765.81;;;12.43;100.00
19672;BME280;9983;51.114;13.788;2023-05-07T01:47:09;99758.28;;;12.39;100.00
19672;BME280;9983;51.114;13.788;2023-05-07T01:52:10;99775.50;;;12.30;100.00
19672;BME280;9983;51.114;13.788;2023-05-07T01:57:11;99773.06;;;12.43;100.00
19672;BME280;9983;51.114;13.788;2023-05-07T02:02:11;99764.75;;;12.30;100.00
19672;BME280;9983;51.114;13.788;2023-05-07T02:07:11;99775.28;;;12.08;100.00
19672;BME280;9983;51.114;13.788;2023-05-07T02:12:11;99763.53;;;12.09;100.00
19672;BME280;9983;51.114;13.788;2023-05-07T02:17:12;99770.41;;;11.81;100.00
19672;BME280;9983;51.114;13.788;2023-05-07T02:22:12;99780.16;;;12.13;100.00
19672;BME280;9983;51.114;13.788;2023-05-07T02:27:12;99780.94;;;12.22;100.00
19672;BME280;9983;51.114;13.788;2023-05-07T02:32:12;99781.97;;;12.21;100.00
19672;BME280;9983;51.114;13.788;2023-05-07T02:37:13;99793.09;;;12.09;100.00
19672;BME280;9983;51.114;13.788;2023-05-07T02:42:13;99790.31;;;12.26;100.00
19672;BME280;9983;51.114;13.788;2023-05-07T02:47:14;99788.72;;;12.08;100.00
19672;BME280;9983;51.114;13.788;2023-05-07T02:52:15;99783.00;;;12.11;100.00
19672;BME280;9983;51.114;13.788;2023-05-07T02:57:15;99787.38;;;12.12;100.00
19672;BME280;9983;51.114;13.788;2023-05-07T03:02:15;99784.41;;;11.99;100.00
19672;BME280;9983;51.114;13.788;2023-05-07T03:07:16;99787.44;;;12.04;100.00
19672;BME280;9983;51.114;13.788;2023-05-07T03:12:16;99795.44;;;12.12;100.00
19672;BME280;9983;51.114;13.788;2023-05-07T03:17:16;99781.69;;;12.07;100.00
19672;BME280;9983;51.114;13.788;2023-05-07T03:22:16;99787.78;;;12.01;100.00
19672;BME280;9983;51.114;13.788;2023-05-07T03:27:17;99782.06;;;12.04;100.00
19672;BME280;9983;51.114;13.788;2023-05-07T03:32:17;99792.91;;;11.72;100.00
19672;BME280;9983;51.114;13.788;2023-05-07T03:37:18;99798.94;;;11.82;100.00
19672;BME280;9983;51.114;13.788;2023-05-07T03:42:18;99801.50;;;12.06;100.00
19672;BME280;9983;51.114;13.788;2023-05-07T03:47:18;99795.16;;;11.99;100.00
19672;BME280;9983;51.114;13.788;2023-05-07T03:52:19;99801.59;;;11.90;100.00
19672;BME280;9983;51.114;13.788;2023-05-07T03:57:23;99805.53;;;12.10;100.00
19672;BME280;9983;51.114;13.788;2023-05-07T04:02:24;99800.91;;;11.96;100.00
19672;BME280;9983;51.114;13.788;2023-05-07T04:07:24;99799.81;;;12.05;100.00
19672;BME280;9983;51.114;13.788;2023-05-07T04:12:24;99804.34;;;12.13;100.00
19672;BME280;9983;51.114;13.788;2023-05-07T04:17:25;99814.22;;;12.21;100.00
19672;BME280;9983;51.114;13.788;2023-05-07T04:22:25;99811.31;;;12.22;100.00
19672;BME280;9983;51.114;13.788;2023-05-07T04:27:25;99815.94;;;12.05;100.00
19672;BME280;9983;51.114;13.788;2023-05-07T04:32:26;99822.56;;;12.26;100.00
19672;BME280;9983;51.114;13.788;2023-05-07T04:37:29;99829.28;;;12.30;100.00
19672;BME280;9983;51.114;13.788;2023-05-07T04:42:29;99837.69;;;12.27;100.00
19672;BME280;9983;51.114;13.788;2023-05-07T04:47:29;99840.94;;;12.14;100.00
19672;BME280;9983;51.114;13.788;2023-05-07T04:52:30;99844.78;;;12.20;100.00
19672;BME280;9983;51.114;13.788;2023-05-07T04:57:30;99841.81;;;12.06;100.00
19672;BME280;9983;51.114;13.788;2023-05-07T05:02:30;99851.13;;;12.27;100.00
19672;BME280;9983;51.114;13.788;2023-05-07T05:07:30;99867.59;;;12.24;100.00
19672;BME280;9983;51.114;13.788;2023-05-07T05:12:31;99871.53;;;12.13;100.00
19672;BME280;9983;51.114;13.788;2023-05-07T05:17:31;99861.59;;;12.13;100.00
19672;BME280;9983;51.114;13.788;2023-05-07T05:22:33;99866.78;;;11.84;100.00
19672;BME280;9983;51.114;13.788;2023-05-07T05:27:34;99861.88;;;11.96;100.00
19672;BME280;9983;51.114;13.788;2023-05-07T05:32:34;99859.97;;;12.04;100.00
19672;BME280;9983;51.114;13.788;2023-05-07T05:37:35;99877.56;;;12.15;100.00
19672;BME280;9983;51.114;13.788;2023-05-07T05:42:35;99874.41;;;12.11;100.00
19672;BME280;9983;51.114;13.788;2023-05-07T05:47:36;99881.06;;;12.15;100.00
19672;BME280;9983;51.114;13.788;2023-05-07T05:52:37;99880.75;;;12.19;100.00
19672;BME280;9983;51.114;13.788;2023-05-07T05:57:37;99887.28;;;12.16;100.00
19672;BME280;9983;51.114;13.788;2023-05-07T06:02:38;99888.00;;;12.10;100.00
19672;BME280;9983;51.114;13.788;2023-05-07T06:07:38;99897.50;;;12.29;100.00
19672;BME280;9983;51.114;13.788;2023-05-07T06:12:39;99907.03;;;12.31;100.00
19672;BME280;9983;51.114;13.788;2023-05-07T06:17:39;99914.31;;;12.23;100.00
19672;BME280;9983;51.114;13.788;2023-05-07T06:22:40;99923.72;;;11.80;100.00
19672;BME280;9983;51.114;13.788;2023-05-07T06:27:40;99930.16;;;12.09;100.00
19672;BME280;9983;51.114;13.788;2023-05-07T06:32:40;99929.47;;;12.15;100.00
19672;BME280;9983;51.114;13.788;2023-05-07T06:37:41;99916.75;;;12.01;100.00
19672;BME280;9983;51.114;13.788;2023-05-07T06:42:42;99925.94;;;12.15;100.00
19672;BME280;9983;51.114;13.788;2023-05-07T06:47:42;99932.47;;;12.21;100.00
19672;BME280;9983;51.114;13.788;2023-05-07T06:52:43;99939.22;;;12.08;100.00
19672;BME280;9983;51.114;13.788;2023-05-07T06:57:43;99940.66;;;11.88;100.00
19672;BME280;9983;51.114;13.788;2023-05-07T07:02:43;99941.19;;;12.23;100.00
19672;BME280;9983;51.114;13.788;2023-05-07T07:07:43;99947.28;;;12.16;100.00
19672;BME280;9983;51.114;13.788;2023-05-07T07:12:44;99940.44;;;12.45;100.00
19672;BME280;9983;51.114;13.788;2023-05-07T07:17:44;99935.19;;;12.51;100.00
19672;BME280;9983;51.114;13.788;2023-05-07T07:22:44;99952.78;;;12.62;100.00
19672;BME280;9983;51.114;13.788;2023-05-07T07:27:45;99947.84;;;12.43;100.00
19672;BME280;9983;51.114;13.788;2023-05-07T07:32:45;99952.88;;;12.46;100.00
19672;BME280;9983;51.114;13.788;2023-05-07T07:37:46;99943.94;;;12.53;100.00
19672;BME280;9983;51.114;13.788;2023-05-07T07:42:47;99952.50;;;12.49;100.00
19672;BME280;9983;51.114;13.788;2023-05-07T07:47:47;99964.69;;;12.68;100.00
19672;BME280;9983;51.114;13.788;2023-05-07T07:52:48;99965.22;;;12.63;99.93
19672;BME280;9983;51.114;13.788;2023-05-07T07:57:49;99969.34;;;12.43;100.00
19672;BME280;9983;51.114;13.788;2023-05-07T08:02:49;99971.41;;;12.64;99.57
19672;BME280;9983;51.114;13.788;2023-05-07T08:07:50;99985.53;;;12.27;100.00
19672;BME280;9983;51.114;13.788;2023-05-07T08:12:52;99982.19;;;12.64;98.53
19672;BME280;9983;51.114;13.788;2023-05-07T08:17:52;99981.22;;;12.57;98.36
19672;BME280;9983;51.114;13.788;2023-05-07T08:22:52;99979.22;;;12.81;97.44
19672;BME280;9983;51.114;13.788;2023-05-07T08:27:52;99983.94;;;12.87;96.00
19672;BME280;9983;51.114;13.788;2023-05-07T08:32:53;99989.63;;;12.62;97.46
19672;BME280;9983;51.114;13.788;2023-05-07T08:37:53;99990.28;;;12.95;97.58
19672;BME280;9983;51.114;13.788;2023-05-07T08:42:54;99998.22;;;13.19;96.51
19672;BME280;9983;51.114;13.788;2023-05-07T08:47:58;99994.69;;;13.18;94.64
19672;BME280;9983;51.114;13.788;2023-05-07T08:52:59;99993.06;;;13.32;92.47
19672;BME280;9983;51.114;13.788;2023-05-07T08:58:00;99997.91;;;13.06;94.60
19672;BME280;9983;51.114;13.788;2023-05-07T09:03:01;100003.41;;;12.89;95.20
19672;BME280;9983;51.114;13.788;2023-05-07T09:08:02;100011.00;;;13.17;94.12
19672;BME280;9983;51.114;13.788;2023-05-07T09:13:02;100010.91;;;13.33;93.25
19672;BME280;9983;51.114;13.788;2023-05-07T09:18:03;100025.03;;;13.35;93.16
19672;BME280;9983;51.114;13.788;2023-05-07T09:23:03;100022.91;;;12.91;95.13
19672;BME280;9983;51.114;13.788;2023-05-07T09:28:04;100037.41;;;13.44;90.91
19672;BME280;9983;51.114;13.788;2023-05-07T09:33:10;100034.06;;;13.19;88.97
19672;BME280;9983;51.114;13.788;2023-05-07T09:38:10;100028.00;;;13.40;89.05
19672;BME280;9983;51.114;13.788;2023-05-07T09:43:11;100027.34;;;13.61;88.20
19672;BME280;9983;51.114;13.788;2023-05-07T09:48:14;100024.38;;;13.33;89.09
19672;BME280;9983;51.114;13.788;2023-05-07T09:53:17;100034.94;;;13.57;85.95
19672;BME280;9983;51.114;13.788;2023-05-07T09:58:18;100037.47;;;13.36;88.20
19672;BME280;9983;51.114;13.788;2023-05-07T10:03:19;100025.72;;;13.75;85.84
19672;BME280;9983;51.114;13.788;2023-05-07T10:08:21;100030.50;;;13.64;83.79
19672;BME280;9983;51.114;13.788;2023-05-07T10:13:21;100027.31;;;13.46;84.75
19672;BME280;9983;51.114;13.788;2023-05-07T10:18:22;100042.81;;;13.82;82.24
19672;BME280;9983;51.114;13.788;2023-05-07T10:23:31;100039.50;;;13.57;84.05
19672;BME280;9983;51.114;13.788;2023-05-07T10:28:38;100030.78;;;14.07;81.81
19672;BME280;9983;51.114;13.788;2023-05-07T10:33:41;100031.78;;;14.43;78.24
19672;BME280;9983;51.114;13.788;2023-05-07T10:38:42;100026.06;;;14.24;80.01
19672;BME280;9983;51.114;13.788;2023-05-07T10:43:44;100021.38;;;14.70;78.18
19672;BME280;9983;51.114;13.788;2023-05-07T11:04:28;100016.84;;;15.49;72.46
19672;BME280;9983;51.114;13.788;2023-05-07T11:14:51;100012.56;;;14.97;74.44
19672;BME280;9983;51.114;13.788;2023-05-07T11:19:55;100010.16;;;15.45;73.54
19672;BME280;9983;51.114;13.788;2023-05-07T11:24:56;100014.16;;;15.70;67.09
19672;BME280;9983;51.114;13.788;2023-05-07T11:29:56;100007.53;;;15.30;68.25
19672;BME280;9983;51.114;13.788;2023-05-07T11:34:58;100009.56;;;16.20;66.97
19672;BME280;9983;51.114;13.788;2023-05-07T11:40:03;100007.56;;;16.35;67.47
19672;BME280;9983;51.114;13.788;2023-05-07T11:45:05;100011.72;;;16.31;66.90
19672;BME280;9983;51.114;13.788;2023-05-07T11:50:09;100013.09;;;15.50;70.55
19672;BME280;9983;51.114;13.788;2023-05-07T11:55:10;100012.59;;;15.82;70.31
19672;BME280;9983;51.114;13.788;2023-05-07T12:00:11;100016.84;;;15.49;71.08
19672;BME280;9983;51.114;13.788;2023-05-07T12:05:12;100023.06;;;15.49;69.38
19672;BME280;9983;51.114;13.788;2023-05-07T12:10:12;100028.44;;;15.85;69.78
19672;BME280;9983;51.114;13.788;2023-05-07T12:15:17;100026.97;;;15.62;69.38
19672;BME280;9983;51.114;13.788;2023-05-07T12:20:17;100025.25;;;15.54;69.36
19672;BME280;9983;51.114;13.788;2023-05-07T12:25:19;100032.81;;;15.23;71.35
19672;BME280;9983;51.114;13.788;2023-05-07T12:30:19;100031.53;;;15.61;69.41
19672;BME280;9983;51.114;13.788;2023-05-07T12:35:36;100037.06;;;15.74;71.74
19672;BME280;9983;51.114;13.788;2023-05-07T12:40:38;100041.75;;;15.87;68.17
19672;BME280;9983;51.114;13.788;2023-05-07T12:45:41;100043.47;;;15.52;69.43
19672;BME280;9983;51.114;13.788;2023-05-07T12:50:42;100043.94;;;16.26;66.40
19672;BME280;9983;51.114;13.788;2023-05-07T12:55:45;100040.34;;;16.19;67.79
19672;BME280;9983;51.114;13.788;2023-05-07T13:00:49;100028.06;;;16.57;64.29
19672;BME280;9983;51.114;13.788;2023-05-07T13:05:50;100029.09;;;16.91;62.00
19672;BME280;9983;51.114;13.788;2023-05-07T13:10:51;100027.13;;;17.19;62.65
19672;BME280;9983;51.114;13.788;2023-05-07T13:15:52;100032.53;;;17.06;62.71
19672;BME280;9983;51.114;13.788;2023-05-07T13:20:55;100028.19;;;16.71;62.75
19672;BME280;9983;51.114;13.788;2023-05-07T13:25:56;100020.41;;;17.02;63.05
19672;BME280;9983;51.114;13.788;2023-05-07T13:30:56;100017.22;;;17.66;58.89
19672;BME280;9983;51.114;13.788;2023-05-07T13:35:57;100012.41;;;19.67;52.12
19672;BME280;9983;51.114;13.788;2023-05-07T13:40:57;100009.53;;;20.92;51.84
19672;BME280;9983;51.114;13.788;2023-05-07T13:45:58;100020.66;;;20.35;47.74
19672;BME280;9983;51.114;13.788;2023-05-07T13:50:58;100014.47;;;20.65;50.03
19672;BME280;9983;51.114;13.788;2023-05-07T13:55:58;100011.13;;;20.99;47.34
19672;BME280;9983;51.114;13.788;2023-05-07T14:00:58;100020.72;;;21.02;46.64
19672;BME280;9983;51.114;13.788;2023-05-07T14:05:59;100014.53;;;20.40;47.87
19672;BME280;9983;51.114;13.788;2023-05-07T14:11:01;100006.59;;;21.53;45.81
19672;BME280;9983;51.114;13.788;2023-05-07T14:16:03;100010.53;;;20.79;48.93
19672;BME280;9983;51.114;13.788;2023-05-07T14:21:04;100000.75;;;21.38;46.69
19672;BME280;9983;51.114;13.788;2023-05-07T14:26:06;100000.13;;;21.36;45.06
19672;BME280;9983;51.114;13.788;2023-05-07T14:31:06;99991.28;;;22.40;44.20
19672;BME280;9983;51.114;13.788;2023-05-07T14:36:06;99999.53;;;21.75;44.51
19672;BME280;9983;51.114;13.788;2023-05-07T14:41:07;100003.78;;;21.71;45.17
19672;BME280;9983;51.114;13.788;2023-05-07T14:46:07;100002.22;;;20.74;46.65
19672;BME280;9983;51.114;13.788;2023-05-07T14:51:07;99998.69;;;20.85;46.17
19672;BME280;9983;51.114;13.788;2023-05-07T14:56:08;99990.78;;;21.13;45.02
19672;BME280;9983;51.114;13.788;2023-05-07T15:01:08;99994.22;;;21.39;45.69
19672;BME280;9983;51.114;13.788;2023-05-07T15:06:08;100008.81;;;21.14;44.87
19672;BME280;9983;51.114;13.788;2023-05-07T15:11:09;100018.53;;;20.37;48.06
19672;BME280;9983;51.114;13.788;2023-05-07T15:16:09;100009.13;;;19.65;49.71
19672;BME280;9983;51.114;13.788;2023-05-07T15:21:09;100023.53;;;19.28;49.52
19672;BME280;9983;51.114;13.788;2023-05-07T15:26:10;100012.88;;;18.88;50.71
19672;BME280;9983;51.114;13.788;2023-05-07T15:31:10;100016.56;;;19.01;51.06
19672;BME280;9983;51.114;13.788;2023-05-07T15:36:10;100014.59;;;18.76;52.76
19672;BME280;9983;51.114;13.788;2023-05-07T15:41:11;100019.78;;;19.29;51.62
19672;BME280;9983;51.114;13.788;2023-05-07T15:46:11;100033.06;;;21.23;46.12
19672;BME280;9983;51.114;13.788;2023-05-07T15:51:11;100041.47;;;21.21;45.85
19672;BME280;9983;51.114;13.788;2023-05-07T15:56:12;100041.19;;;20.31;45.94
19672;BME280;9983;51.114;13.788;2023-05-07T16:01:12;100031.56;;;21.08;44.66
19672;BME280;9983;51.114;13.788;2023-05-07T16:06:12;100034.50;;;19.15;48.46
19672;BME280;9983;51.114;13.788;2023-05-07T16:11:13;100032.94;;;18.87;48.99
19672;BME280;9983;51.114;13.788;2023-05-07T16:16:13;100030.06;;;18.69;51.78
19672;BME280;9983;51.114;13.788;2023-05-07T16:21:13;100036.38;;;17.44;53.87
19672;BME280;9983;51.114;13.788;2023-05-07T16:26:13;100036.94;;;17.33;55.16
19672;BME280;9983;51.114;13.788;2023-05-07T16:31:14;100037.50;;;17.09;56.61
19672;BME280;9983;51.114;13.788;2023-05-07T16:36:14;100048.00;;;16.43;58.73
19672;BME280;9983;51.114;13.788;2023-05-07T16:41:14;100050.78;;;16.22;59.07
19672;BME280;9983;51.114;13.788;2023-05-07T16:46:14;100054.31;;;15.94;60.75
19672;BME280;9983;51.114;13.788;2023-05-07T16:51:15;100056.47;;;15.57;62.15
19672;BME280;9983;51.114;13.788;2023-05-07T16:56:15;100060.50;;;15.88;61.82
19672;BME280;9983;51.114;13.788;2023-05-07T17:01:15;100047.13;;;15.80;61.98
19672;BME280;9983;51.114;13.788;2023-05-07T17:06:17;100050.28;;;15.27;63.01
19672;BME280;9983;51.114;13.788;2023-05-07T17:11:18;100061.28;;;15.61;62.21
19672;BME280;9983;51.114;13.788;2023-05-07T17:16:18;100070.44;;;15.09;63.69
19672;BME280;9983;51.114;13.788;2023-05-07T17:21:18;100071.13;;;14.82;64.70
19672;BME280;9983;51.114;13.788;2023-05-07T17:26:18;100077.03;;;14.71;65.89
19672;BME280;9983;51.114;13.788;2023-05-07T17:31:20;100076.78;;;14.28;66.46
19672;BME280;9983;51.114;13.788;2023-05-07T17:36:20;100086.78;;;14.05;67.57
19672;BME280;9983;51.114;13.788;2023-05-07T17:41:20;100084.66;;;14.15;66.49
19672;BME280;9983;51.114;13.788;2023-05-07T17:46:21;100085.66;;;13.77;68.67
19672;BME280;9983;51.114;13.788;2023-05-07T17:51:22;100088.00;;;13.80;68.04
19672;BME280;9983;51.114;13.788;2023-05-07T17:56:22;100080.81;;;13.49;68.27
19672;BME280;9983;51.114;13.788;2023-05-07T18:01:22;100081.47;;;13.28;69.93
19672;BME280;9983;51.114;13.788;2023-05-07T18:06:23;100082.09;;;13.61;68.03
19672;BME280;9983;51.114;13.788;2023-05-07T18:11:23;100088.59;;;13.44;68.82
19672;BME280;9983;51.114;13.788;2023-05-07T18:16:23;100099.19;;;13.15;70.25
19672;BME280;9983;51.114;13.788;2023-05-07T18:21:24;100084.03;;;13.22;69.80
19672;BME280;9983;51.114;13.788;2023-05-07T18:26:24;100100.88;;;13.16;70.13
19672;BME280;9983;51.114;13.788;2023-05-07T18:31:24;100110.47;;;13.10;70.88
19672;BME280;9983;51.114;13.788;2023-05-07T18:36:25;100106.09;;;12.70;73.38
19672;BME280;9983;51.114;13.788;2023-05-07T18:41:27;100104.69;;;12.82;72.26
19672;BME280;9983;51.114;13.788;2023-05-07T18:46:27;100117.94;;;12.37;73.84
19672;BME280;9983;51.114;13.788;2023-05-07T18:51:28;100115.81;;;12.79;72.35
19672;BME280;9983;51.114;13.788;2023-05-07T18:56:28;100122.22;;;12.70;72.49
19672;BME280;9983;51.114;13.788;2023-05-07T19:01:28;100129.97;;;12.65;72.62
19672;BME280;9983;51.114;13.788;2023-05-07T19:06:29;100127.53;;;12.15;75.34
19672;BME280;9983;51.114;13.788;2023-05-07T19:11:30;100129.72;;;12.36;74.55
19672;BME280;9983;51.114;13.788;2023-05-07T19:16:30;100135.09;;;12.28;75.34
19672;BME280;9983;51.114;13.788;2023-05-07T19:21:30;100127.72;;;12.22;76.18
19672;BME280;9983;51.114;13.788;2023-05-07T19:26:31;100136.78;;;12.12;75.90
19672;BME280;9983;51.114;13.788;2023-05-07T19:31:31;100142.81;;;12.31;75.58
19672;BME280;9983;51.114;13.788;2023-05-07T19:36:32;100142.47;;;12.26;75.59
19672;BME280;9983;51.114;13.788;2023-05-07T19:41:33;100140.97;;;12.07;76.17
19672;BME280;9983;51.114;13.788;2023-05-07T19:46:33;100145.50;;;12.23;75.50
19672;BME280;9983;51.114;13.788;2023-05-07T19:51:34;100150.03;;;11.90;78.48
19672;BME280;9983;51.114;13.788;2023-05-07T19:56:34;100164.00;;;12.01;76.42
19672;BME280;9983;51.114;13.788;2023-05-07T20:01:35;100167.00;;;11.90;78.23
19672;BME280;9983;51.114;13.788;2023-05-07T20:06:35;100171.38;;;11.99;76.48
19672;BME280;9983;51.114;13.788;2023-05-07T20:11:35;100175.22;;;11.81;79.34
19672;BME280;9983;51.114;13.788;2023-05-07T20:16:36;100185.69;;;11.50;78.67
19672;BME280;9983;51.114;13.788;2023-05-07T20:21:36;100192.53;;;11.86;77.16
19672;BME280;9983;51.114;13.788;2023-05-07T20:26:36;100197.84;;;11.70;77.78
19672;BME280;9983;51.114;13.788;2023-05-07T20:31:38;100201.34;;;11.62;77.72
19672;BME280;9983;51.114;13.788;2023-05-07T20:36:38;100204.88;;;11.63;76.38
19672;BME280;9983;51.114;13.788;2023-05-07T20:41:39;100204.63;;;11.40;76.93
19672;BME280;9983;51.114;13.788;2023-05-07T20:46:39;100213.31;;;11.76;74.94
19672;BME280;9983;51.114;13.788;2023-05-07T20:51:39;100218.94;;;11.57;75.39
19672;BME280;9983;51.114;13.788;2023-05-07T20:56:40;100210.50;;;11.35;76.43
19672;BME280;9983;51.114;13.788;2023-05-07T21:01:40;100213.56;;;11.57;75.14
19672;BME280;9983;51.114;13.788;2023-05-07T21:06:41;100222.25;;;11.43;74.61
19672;BME280;9983;51.114;13.788;2023-05-07T21:11:42;100216.56;;;11.46;74.59
19672;BME280;9983;51.114;13.788;2023-05-07T21:16:43;100222.56;;;11.39;74.04
19672;BME280;9983;51.114;13.788;2023-05-07T21:21:43;100221.28;;;11.52;72.58
19672;BME280;9983;51.114;13.788;2023-05-07T21:26:43;100221.59;;;11.49;73.45
19672;BME280;9983;51.114;13.788;2023-05-07T21:31:43;100227.31;;;11.46;74.07
19672;BME280;9983;51.114;13.788;2023-05-07T21:36:44;100237.34;;;11.35;73.67
19672;BME280;9983;51.114;13.788;2023-05-07T21:41:44;100232.69;;;11.46;73.10
19672;BME280;9983;51.114;13.788;2023-05-07T21:46:44;100233.25;;;11.23;73.92
19672;BME280;9983;51.114;13.788;2023-05-07T21:51:45;100246.22;;;11.02;74.85
19672;BME280;9983;51.114;13.788;2023-05-07T21:56:45;100250.00;;;11.17;75.01
19672;BME280;9983;51.114;13.788;2023-05-07T22:01:45;100245.47;;;10.92;75.63
19672;BME280;9983;51.114;13.788;2023-05-07T22:06:45;100252.22;;;10.96;76.17
19672;BME280;9983;51.114;13.788;2023-05-07T22:11:46;100259.78;;;11.00;75.11
19672;BME280;9983;51.114;13.788;2023-05-07T22:16:46;100246.13;;;10.86;76.25
19672;BME280;9983;51.114;13.788;2023-05-07T22:21:46;100242.50;;;10.69;76.48
19672;BME280;9983;51.114;13.788;2023-05-07T22:26:46;100242.56;;;10.77;76.76
19672;BME280;9983;51.114;13.788;2023-05-07T22:31:48;100245.13;;;10.87;74.81
19672;BME280;9983;51.114;13.788;2023-05-07T22:36:48;100241.38;;;10.80;75.76
19672;BME280;9983;51.114;13.788;2023-05-07T22:41:49;100247.06;;;10.77;75.91
19672;BME280;9983;51.114;13.788;2023-05-07T22:46:49;100243.69;;;10.75;75.78
19672;BME280;9983;51.114;13.788;2023-05-07T22:51:49;100240.66;;;10.70;76.81
19672;BME280;9983;51.114;13.788;2023-05-07T22:56:50;100255.06;;;10.69;76.23
19672;BME280;9983;51.114;13.788;2023-05-07T23:01:52;100248.31;;;10.64;75.96
19672;BME280;9983;51.114;13.788;2023-05-07T23:06:52;100252.63;;;10.57;76.62
19672;BME280;9983;51.114;13.788;2023-05-07T23:11:52;100251.97;;;10.38;77.60
19672;BME280;9983;51.114;13.788;2023-05-07T23:16:53;100245.56;;;10.56;76.50
19672;BME280;9983;51.114;13.788;2023-05-07T23:21:53;100238.22;;;10.58;76.37
19672;BME280;9983;51.114;13.788;2023-05-07T23:26:53;100244.50;;;10.49;77.35
19672;BME280;9983;51.114;13.788;2023-05-07T23:31:53;100241.84;;;10.32;78.38
19672;BME280;9983;51.114;13.788;2023-05-07T23:36:53;100245.13;;;10.43;79.19
19672;BME280;9983;51.114;13.788;2023-05-07T23:41:54;100241.91;;;10.57;78.08
19672;BME280;9983;51.114;13.788;2023-05-07T23:46:54;100234.72;;;10.40;79.92
19672;BME280;9983;51.114;13.788;2023-05-07T23:51:54;100248.91;;;10.33;80.94
19672;BME280;9983;51.114;13.788;2023-05-07T23:56:55;100240.50;;;10.27;81.43
